createdAt,value
2018-03-23T00:00:21.503Z,0.00
2018-03-23T00:01:21.458Z,0.00
2018-03-23T00:02:21.412Z,0.00
2018-03-23T00:03:21.368Z,0.00
2018-03-23T00:04:21.318Z,0.00
2018-03-23T00:05:21.272Z,0.00
2018-03-23T00:06:21.226Z,0.00
2018-03-23T00:07:21.180Z,0.00
2018-03-23T00:08:21.135Z,0.00
2018-03-23T00:09:21.097Z,0.00
2018-03-23T00:10:21.043Z,0.00
2018-03-23T00:11:21.022Z,0.00
2018-03-23T00:12:20.949Z,0.00
2018-03-23T00:13:20.915Z,0.00
2018-03-23T00:14:20.864Z,0.00
2018-03-23T00:15:20.810Z,0.00
2018-03-23T00:16:20.764Z,0.00
2018-03-23T00:17:20.720Z,0.00
2018-03-23T00:18:20.672Z,0.00
2018-03-23T00:19:20.626Z,0.00
2018-03-23T00:20:20.578Z,0.00
2018-03-23T00:21:20.533Z,0.00
2018-03-23T00:22:20.485Z,0.00
2018-03-23T00:23:20.441Z,0.00
2018-03-23T00:24:20.396Z,0.00
2018-03-23T00:25:20.348Z,0.00
2018-03-23T00:26:20.301Z,0.00
2018-03-23T00:27:20.254Z,0.00
2018-03-23T00:28:20.210Z,0.00
2018-03-23T00:29:20.219Z,0.00
2018-03-23T00:30:20.117Z,0.00
2018-03-23T00:31:20.068Z,0.00
2018-03-23T00:32:20.021Z,0.00
2018-03-23T00:33:19.975Z,0.00
2018-03-23T00:34:19.934Z,0.00
2018-03-23T00:35:19.886Z,0.00
2018-03-23T00:36:19.843Z,0.00
2018-03-23T00:37:19.792Z,0.00
2018-03-23T00:38:19.751Z,0.00
2018-03-23T00:39:19.701Z,0.00
2018-03-23T00:40:19.662Z,0.00
2018-03-23T00:41:19.609Z,0.00
2018-03-23T00:42:19.560Z,0.00
2018-03-23T00:43:19.520Z,0.00
2018-03-23T00:44:19.467Z,0.00
2018-03-23T00:45:19.421Z,0.00
2018-03-23T00:46:19.379Z,0.00
2018-03-23T00:47:19.334Z,0.00
2018-03-23T00:48:19.283Z,0.00
2018-03-23T00:49:19.237Z,0.00
2018-03-23T00:50:19.190Z,0.00
2018-03-23T00:51:19.143Z,0.00
2018-03-23T00:52:19.097Z,0.00
2018-03-23T00:53:19.051Z,0.00
2018-03-23T00:54:19.004Z,0.00
2018-03-23T00:55:18.957Z,0.00
2018-03-23T00:56:18.929Z,0.00
2018-03-23T00:57:18.866Z,0.00
2018-03-23T00:58:18.821Z,0.00
2018-03-23T00:59:18.773Z,0.00
2018-03-23T01:00:18.726Z,0.00
2018-03-23T01:01:18.683Z,0.00
2018-03-23T01:02:18.646Z,0.00
2018-03-23T01:03:18.588Z,0.00
2018-03-23T01:04:18.543Z,0.00
2018-03-23T01:05:18.497Z,0.00
2018-03-23T01:06:18.454Z,0.00
2018-03-23T01:07:18.406Z,0.00
2018-03-23T01:08:18.356Z,0.00
2018-03-23T01:09:18.311Z,0.00
2018-03-23T01:10:18.265Z,0.00
2018-03-23T01:11:18.219Z,0.00
2018-03-23T01:12:18.171Z,0.00
2018-03-23T01:13:18.128Z,0.00
2018-03-23T01:14:18.084Z,0.00
2018-03-23T01:15:18.034Z,0.00
2018-03-23T01:16:17.988Z,0.00
2018-03-23T01:17:17.942Z,0.00
2018-03-23T01:18:17.894Z,0.00
2018-03-23T01:19:17.849Z,0.00
2018-03-23T01:20:17.806Z,0.00
2018-03-23T01:21:17.755Z,0.00
2018-03-23T01:22:17.712Z,0.00
2018-03-23T01:23:17.665Z,0.00
2018-03-23T01:24:17.620Z,0.00
2018-03-23T01:25:17.572Z,0.00
2018-03-23T01:26:17.525Z,0.00
2018-03-23T01:27:17.480Z,0.00
2018-03-23T01:28:17.431Z,0.00
2018-03-23T01:29:17.390Z,0.00
2018-03-23T01:30:17.344Z,0.00
2018-03-23T01:31:17.298Z,0.00
2018-03-23T01:32:17.252Z,0.00
2018-03-23T01:33:17.201Z,0.00
2018-03-23T01:34:17.155Z,0.00
2018-03-23T01:35:17.109Z,0.00
2018-03-23T01:36:17.062Z,0.00
2018-03-23T01:37:17.014Z,0.00
2018-03-23T01:38:16.970Z,0.00
2018-03-23T01:39:16.923Z,0.00
2018-03-23T01:40:16.878Z,0.00
2018-03-23T01:41:16.831Z,0.00
2018-03-23T01:42:16.786Z,0.00
2018-03-23T01:43:16.741Z,0.00
2018-03-23T01:44:16.691Z,0.00
2018-03-23T01:45:16.644Z,0.00
2018-03-23T01:46:16.607Z,0.00
2018-03-23T01:47:16.553Z,0.00
2018-03-23T01:48:16.505Z,0.00
2018-03-23T01:49:16.460Z,0.00
2018-03-23T01:50:16.414Z,0.00
2018-03-23T01:51:16.367Z,0.00
2018-03-23T01:52:16.320Z,0.00
2018-03-23T01:53:16.276Z,0.00
2018-03-23T01:54:16.229Z,0.00
2018-03-23T01:55:16.184Z,0.00
2018-03-23T01:56:16.136Z,0.00
2018-03-23T01:57:16.098Z,0.00
2018-03-23T01:58:16.042Z,0.00
2018-03-23T01:59:15.995Z,0.00
2018-03-23T02:00:15.951Z,0.00
2018-03-23T02:01:15.904Z,0.00
2018-03-23T02:02:15.864Z,0.00
2018-03-23T02:03:15.858Z,0.00
2018-03-23T02:04:15.765Z,0.00
2018-03-23T02:05:15.718Z,0.00
2018-03-23T02:06:15.671Z,0.00
2018-03-23T02:07:15.628Z,0.00
2018-03-23T02:08:15.578Z,0.00
2018-03-23T02:09:15.532Z,0.00
2018-03-23T02:10:15.488Z,0.00
2018-03-23T02:11:15.442Z,0.00
2018-03-23T02:12:15.401Z,0.00
2018-03-23T02:13:15.349Z,0.00
2018-03-23T02:14:15.306Z,0.00
2018-03-23T02:15:15.255Z,0.00
2018-03-23T02:16:15.209Z,0.00
2018-03-23T02:17:15.161Z,0.00
2018-03-23T02:18:15.115Z,0.00
2018-03-23T02:19:15.070Z,0.00
2018-03-23T02:20:15.027Z,0.00
2018-03-23T02:21:14.978Z,0.00
2018-03-23T02:22:14.936Z,0.00
2018-03-23T02:23:14.884Z,0.00
2018-03-23T02:24:14.838Z,0.00
2018-03-23T02:25:14.790Z,0.00
2018-03-23T02:26:14.745Z,0.00
2018-03-23T02:27:14.703Z,0.00
2018-03-23T02:28:14.660Z,0.00
2018-03-23T02:29:14.606Z,0.00
2018-03-23T02:30:14.561Z,0.00
2018-03-23T02:31:14.517Z,0.00
2018-03-23T02:32:14.470Z,0.00
2018-03-23T02:33:14.421Z,0.00
2018-03-23T02:34:14.376Z,0.00
2018-03-23T02:35:14.333Z,0.00
2018-03-23T02:36:14.282Z,0.00
2018-03-23T02:37:14.251Z,0.00
2018-03-23T02:38:14.189Z,0.00
2018-03-23T02:39:14.144Z,0.00
2018-03-23T02:40:14.098Z,0.00
2018-03-23T02:41:14.051Z,0.00
2018-03-23T02:42:14.005Z,0.00
2018-03-23T02:43:13.959Z,0.00
2018-03-23T02:44:13.922Z,0.00
2018-03-23T02:45:13.865Z,0.00
2018-03-23T02:46:13.825Z,0.00
2018-03-23T02:47:13.777Z,0.00
2018-03-23T02:48:13.732Z,0.00
2018-03-23T02:49:13.680Z,0.00
2018-03-23T02:50:13.635Z,0.00
2018-03-23T02:51:13.591Z,0.00
2018-03-23T02:52:13.549Z,0.00
2018-03-23T02:53:13.498Z,0.00
2018-03-23T02:54:13.455Z,0.00
2018-03-23T02:55:13.408Z,0.00
2018-03-23T02:56:13.356Z,0.00
2018-03-23T02:57:13.312Z,0.00
2018-03-23T02:58:13.266Z,0.00
2018-03-23T02:59:13.231Z,0.00
2018-03-23T03:00:13.176Z,0.00
2018-03-23T03:01:13.129Z,0.00
2018-03-23T03:02:13.085Z,0.00
2018-03-23T03:03:13.037Z,0.00
2018-03-23T03:04:12.994Z,0.00
2018-03-23T03:05:12.941Z,0.00
2018-03-23T03:06:12.898Z,0.00
2018-03-23T03:07:12.856Z,0.00
2018-03-23T03:08:12.802Z,0.00
2018-03-23T03:09:12.756Z,0.00
2018-03-23T03:10:12.710Z,0.00
2018-03-23T03:11:12.667Z,0.00
2018-03-23T03:12:12.621Z,0.00
2018-03-23T03:13:12.575Z,0.00
2018-03-23T03:14:12.526Z,0.00
2018-03-23T03:15:12.489Z,0.00
2018-03-23T03:16:12.437Z,0.00
2018-03-23T03:17:12.393Z,0.00
2018-03-23T03:18:12.344Z,0.00
2018-03-23T03:19:12.294Z,0.00
2018-03-23T03:20:12.256Z,0.00
2018-03-23T03:21:12.200Z,0.00
2018-03-23T03:22:12.157Z,0.00
2018-03-23T03:23:12.109Z,0.00
2018-03-23T03:24:12.063Z,0.00
2018-03-23T03:25:12.018Z,0.00
2018-03-23T03:26:11.974Z,0.00
2018-03-23T03:27:11.925Z,0.00
2018-03-23T03:28:11.877Z,0.00
2018-03-23T03:29:11.835Z,0.00
2018-03-23T03:30:11.802Z,0.00
2018-03-23T03:31:11.741Z,0.00
2018-03-23T03:32:11.694Z,0.00
2018-03-23T03:33:11.647Z,0.00
2018-03-23T03:34:11.603Z,0.00
2018-03-23T03:35:11.553Z,0.00
2018-03-23T03:36:11.507Z,0.00
2018-03-23T03:37:11.461Z,0.00
2018-03-23T03:38:11.417Z,0.00
2018-03-23T03:39:11.373Z,0.00
2018-03-23T03:40:11.324Z,0.00
2018-03-23T03:41:11.278Z,0.00
2018-03-23T03:42:11.233Z,0.00
2018-03-23T03:43:11.187Z,0.00
2018-03-23T03:44:11.137Z,0.00
2018-03-23T03:45:11.093Z,0.00
2018-03-23T03:46:11.048Z,0.00
2018-03-23T03:47:10.997Z,0.00
2018-03-23T03:48:10.954Z,0.00
2018-03-23T03:49:10.911Z,0.00
2018-03-23T03:50:10.861Z,0.00
2018-03-23T03:51:10.814Z,0.00
2018-03-23T03:52:10.768Z,0.00
2018-03-23T03:53:10.721Z,0.00
2018-03-23T03:54:10.676Z,0.00
2018-03-23T03:55:10.633Z,0.00
2018-03-23T03:56:10.589Z,0.00
2018-03-23T03:57:10.537Z,0.00
2018-03-23T03:58:10.489Z,0.00
2018-03-23T03:59:10.446Z,0.00
2018-03-23T04:00:10.400Z,0.00
2018-03-23T04:01:10.352Z,0.00
2018-03-23T04:02:10.306Z,0.00
2018-03-23T04:03:10.259Z,0.00
2018-03-23T04:04:10.216Z,0.00
2018-03-23T04:05:10.168Z,0.00
2018-03-23T04:06:10.123Z,0.00
2018-03-23T04:07:10.076Z,0.00
2018-03-23T04:08:10.031Z,0.00
2018-03-23T04:09:09.986Z,0.00
2018-03-23T04:10:10.058Z,0.00
2018-03-23T04:11:09.897Z,0.00
2018-03-23T04:12:09.842Z,0.00
2018-03-23T04:13:09.798Z,0.00
2018-03-23T04:14:09.752Z,0.00
2018-03-23T04:15:09.705Z,0.00
2018-03-23T04:16:09.656Z,0.00
2018-03-23T04:17:09.614Z,0.00
2018-03-23T04:18:09.566Z,0.00
2018-03-23T04:19:09.523Z,0.00
2018-03-23T04:20:09.471Z,0.00
2018-03-23T04:21:09.426Z,0.00
2018-03-23T04:22:09.389Z,0.00
2018-03-23T04:23:09.334Z,0.00
2018-03-23T04:24:09.289Z,0.00
2018-03-23T04:25:09.241Z,0.00
2018-03-23T04:26:09.194Z,0.00
2018-03-23T04:27:09.152Z,0.00
2018-03-23T04:28:09.101Z,0.00
2018-03-23T04:29:09.054Z,0.00
2018-03-23T04:30:09.009Z,0.00
2018-03-23T04:31:08.966Z,0.00
2018-03-23T04:32:08.920Z,0.00
2018-03-23T04:33:08.875Z,0.00
2018-03-23T04:34:08.830Z,0.00
2018-03-23T04:35:08.781Z,0.00
2018-03-23T04:36:08.731Z,0.00
2018-03-23T04:37:08.688Z,0.00
2018-03-23T04:38:08.646Z,0.00
2018-03-23T04:39:08.596Z,0.00
2018-03-23T04:40:08.547Z,0.00
2018-03-23T04:41:08.500Z,0.00
2018-03-23T04:42:08.454Z,0.00
2018-03-23T04:43:08.409Z,0.00
2018-03-23T04:44:08.361Z,0.00
2018-03-23T04:45:08.319Z,0.00
2018-03-23T04:46:08.276Z,0.00
2018-03-23T04:47:08.229Z,0.00
2018-03-23T04:48:08.179Z,0.00
2018-03-23T04:49:08.130Z,0.00
2018-03-23T04:50:08.089Z,0.00
2018-03-23T04:51:08.040Z,0.00
2018-03-23T04:52:07.995Z,0.00
2018-03-23T04:53:07.948Z,0.00
2018-03-23T04:54:07.900Z,0.00
2018-03-23T04:55:07.853Z,0.00
2018-03-23T04:56:07.807Z,0.00
2018-03-23T04:57:07.763Z,0.00
2018-03-23T04:58:07.716Z,0.00
2018-03-23T04:59:07.670Z,0.00
2018-03-23T05:00:07.623Z,0.00
2018-03-23T05:01:07.577Z,0.00
2018-03-23T05:02:07.536Z,0.00
2018-03-23T05:03:07.484Z,0.00
2018-03-23T05:04:07.437Z,0.00
2018-03-23T05:05:07.392Z,0.00
2018-03-23T05:06:07.357Z,0.00
2018-03-23T05:07:07.301Z,0.00
2018-03-23T05:08:07.251Z,0.00
2018-03-23T05:09:07.204Z,0.00
2018-03-23T05:10:07.159Z,0.00
2018-03-23T05:11:07.111Z,0.00
2018-03-23T05:12:07.064Z,0.00
2018-03-23T05:13:07.020Z,0.00
2018-03-23T05:14:06.972Z,0.00
2018-03-23T05:15:06.924Z,0.00
2018-03-23T05:16:06.883Z,0.00
2018-03-23T05:17:06.837Z,0.00
2018-03-23T05:18:06.789Z,0.00
2018-03-23T05:19:06.742Z,0.00
2018-03-23T05:20:06.694Z,0.00
2018-03-23T05:21:06.648Z,0.00
2018-03-23T05:22:06.631Z,0.00
2018-03-23T05:23:06.560Z,0.00
2018-03-23T05:24:06.516Z,0.00
2018-03-23T05:25:06.467Z,0.00
2018-03-23T05:26:06.415Z,0.00
2018-03-23T05:27:06.372Z,0.00
2018-03-23T05:28:06.321Z,0.00
2018-03-23T05:29:06.277Z,0.00
2018-03-23T05:30:06.228Z,0.00
2018-03-23T05:31:06.185Z,0.00
2018-03-23T05:32:06.136Z,0.00
2018-03-23T05:33:06.102Z,0.00
2018-03-23T05:34:06.043Z,0.00
2018-03-23T05:35:06.000Z,0.00
2018-03-23T05:36:05.951Z,0.00
2018-03-23T05:37:05.906Z,0.00
2018-03-23T05:38:05.857Z,0.00
2018-03-23T05:39:05.812Z,0.00
2018-03-23T05:40:05.765Z,0.00
2018-03-23T05:41:05.718Z,0.00
2018-03-23T05:42:05.675Z,0.00
2018-03-23T05:43:05.626Z,0.00
2018-03-23T05:44:05.578Z,0.00
2018-03-23T05:45:05.533Z,0.00
2018-03-23T05:46:05.487Z,0.00
2018-03-23T05:47:05.443Z,0.00
2018-03-23T05:48:05.399Z,0.00
2018-03-23T05:49:05.347Z,0.00
2018-03-23T05:50:05.303Z,0.00
2018-03-23T05:51:05.258Z,0.00
2018-03-23T05:52:05.211Z,0.00
2018-03-23T05:53:05.162Z,0.00
2018-03-23T05:54:05.114Z,0.00
2018-03-23T05:55:05.070Z,0.00
2018-03-23T05:56:05.021Z,0.00
2018-03-23T05:57:04.977Z,0.00
2018-03-23T05:58:04.929Z,0.00
2018-03-23T05:59:04.883Z,0.00
2018-03-23T06:00:04.837Z,0.00
2018-03-23T06:01:04.787Z,0.00
2018-03-23T06:02:04.740Z,0.00
2018-03-23T06:03:04.697Z,0.00
2018-03-23T06:04:04.646Z,0.00
2018-03-23T06:05:04.602Z,0.00
2018-03-23T06:06:04.557Z,0.00
2018-03-23T06:07:04.523Z,0.00
2018-03-23T06:08:04.463Z,0.00
2018-03-23T06:09:04.415Z,5.63
2018-03-23T06:10:04.369Z,5.63
2018-03-23T06:11:04.325Z,5.63
2018-03-23T06:12:04.276Z,5.63
2018-03-23T06:13:04.231Z,5.63
2018-03-23T06:14:04.183Z,5.63
2018-03-23T06:15:04.155Z,5.63
2018-03-23T06:16:04.093Z,5.63
2018-03-23T06:17:04.059Z,5.63
2018-03-23T06:18:04.006Z,5.63
2018-03-23T06:19:03.956Z,5.63
2018-03-23T06:20:03.904Z,5.63
2018-03-23T06:21:03.861Z,11.25
2018-03-23T06:22:03.816Z,11.25
2018-03-23T06:23:03.773Z,11.25
2018-03-23T06:24:03.722Z,11.25
2018-03-23T06:25:03.672Z,11.25
2018-03-23T06:26:03.627Z,16.88
2018-03-23T06:27:03.579Z,16.88
2018-03-23T06:28:03.547Z,16.88
2018-03-23T06:29:03.484Z,16.88
2018-03-23T06:30:03.439Z,16.88
2018-03-23T06:31:03.393Z,16.88
2018-03-23T06:32:03.343Z,16.88
2018-03-23T06:33:03.307Z,16.88
2018-03-23T06:34:03.252Z,16.88
2018-03-23T06:35:03.205Z,16.88
2018-03-23T06:36:03.158Z,16.88
2018-03-23T06:37:03.112Z,22.50
2018-03-23T06:38:03.064Z,16.88
2018-03-23T06:39:03.024Z,16.88
2018-03-23T06:40:02.982Z,22.50
2018-03-23T06:41:02.924Z,22.50
2018-03-23T06:42:02.880Z,22.50
2018-03-23T06:43:02.834Z,16.88
2018-03-23T06:44:02.787Z,16.88
2018-03-23T06:45:02.740Z,22.50
2018-03-23T06:46:02.694Z,22.50
2018-03-23T06:47:02.647Z,22.50
2018-03-23T06:48:02.602Z,28.13
2018-03-23T06:49:02.553Z,28.13
2018-03-23T06:50:02.508Z,28.13
2018-03-23T06:51:02.471Z,28.13
2018-03-23T06:52:02.426Z,28.13
2018-03-23T06:53:02.370Z,28.13
2018-03-23T06:54:02.320Z,28.13
2018-03-23T06:55:02.278Z,28.13
2018-03-23T06:56:02.226Z,28.13
2018-03-23T06:57:02.182Z,28.13
2018-03-23T06:58:02.137Z,28.13
2018-03-23T06:59:02.086Z,28.13
2018-03-23T07:00:02.044Z,28.13
2018-03-23T07:01:01.993Z,28.13
2018-03-23T07:02:01.950Z,28.13
2018-03-23T07:03:01.913Z,28.13
2018-03-23T07:04:01.858Z,28.13
2018-03-23T07:05:01.807Z,28.13
2018-03-23T07:06:01.762Z,28.13
2018-03-23T07:07:01.715Z,28.13
2018-03-23T07:08:01.668Z,28.13
2018-03-23T07:09:01.627Z,28.13
2018-03-23T07:10:01.574Z,33.75
2018-03-23T07:11:01.576Z,33.75
2018-03-23T07:12:01.495Z,28.13
2018-03-23T07:13:01.439Z,33.75
2018-03-23T07:14:01.393Z,28.13
2018-03-23T07:15:01.349Z,28.13
2018-03-23T07:16:01.298Z,28.13
2018-03-23T07:17:01.253Z,28.13
2018-03-23T07:18:01.202Z,28.13
2018-03-23T07:19:01.183Z,28.13
2018-03-23T07:20:01.112Z,28.13
2018-03-23T07:21:01.069Z,28.13
2018-03-23T07:22:01.057Z,28.13
2018-03-23T07:23:00.972Z,28.13
2018-03-23T07:24:00.921Z,33.75
2018-03-23T07:25:00.878Z,33.75
2018-03-23T07:26:00.854Z,33.75
2018-03-23T07:27:00.784Z,33.75
2018-03-23T07:28:00.739Z,33.75
2018-03-23T07:29:00.702Z,33.75
2018-03-23T07:30:00.648Z,33.75
2018-03-23T07:31:00.616Z,39.38
2018-03-23T07:32:00.555Z,39.38
2018-03-23T07:33:00.525Z,39.38
2018-03-23T07:34:00.461Z,39.38
2018-03-23T07:35:00.431Z,45.00
2018-03-23T07:36:00.363Z,39.38
2018-03-23T07:37:00.318Z,39.38
2018-03-23T07:38:00.281Z,39.38
2018-03-23T07:39:00.226Z,39.38
2018-03-23T07:40:00.184Z,39.38
2018-03-23T07:41:00.133Z,39.38
2018-03-23T07:42:00.087Z,39.38
2018-03-23T07:43:00.046Z,39.38
2018-03-23T07:43:59.992Z,45.00
2018-03-23T07:44:59.951Z,45.00
2018-03-23T07:45:59.903Z,45.00
2018-03-23T07:46:59.854Z,45.00
2018-03-23T07:47:59.809Z,50.63
2018-03-23T07:48:59.762Z,50.63
2018-03-23T07:49:59.715Z,50.63
2018-03-23T07:50:59.671Z,45.00
2018-03-23T07:51:59.621Z,39.38
2018-03-23T07:52:59.576Z,39.38
2018-03-23T07:53:59.529Z,45.00
2018-03-23T07:54:59.481Z,56.25
2018-03-23T07:55:59.458Z,67.50
2018-03-23T07:56:59.409Z,67.50
2018-03-23T07:57:59.344Z,67.50
2018-03-23T07:58:59.312Z,73.13
2018-03-23T07:59:59.267Z,67.50
2018-03-23T08:00:59.210Z,73.13
2018-03-23T08:01:59.179Z,84.38
2018-03-23T08:02:59.130Z,90.00
2018-03-23T08:03:59.081Z,95.63
2018-03-23T08:04:59.034Z,95.63
2018-03-23T08:05:58.988Z,106.88
2018-03-23T08:06:58.941Z,112.50
2018-03-23T08:07:58.894Z,106.88
2018-03-23T08:08:58.832Z,112.50
2018-03-23T08:09:58.785Z,118.13
2018-03-23T08:10:58.741Z,118.13
2018-03-23T08:11:58.693Z,118.13
2018-03-23T08:12:58.652Z,123.75
2018-03-23T08:13:58.601Z,135.00
2018-03-23T08:14:58.557Z,140.63
2018-03-23T08:15:58.508Z,140.63
2018-03-23T08:16:58.462Z,135.00
2018-03-23T08:17:58.414Z,135.00
2018-03-23T08:18:58.369Z,135.00
2018-03-23T08:19:58.324Z,129.38
2018-03-23T08:20:58.291Z,123.75
2018-03-23T08:21:58.244Z,135.00
2018-03-23T08:22:58.185Z,140.63
2018-03-23T08:23:58.146Z,146.25
2018-03-23T08:24:58.109Z,151.88
2018-03-23T08:25:58.061Z,151.88
2018-03-23T08:26:58.003Z,146.25
2018-03-23T08:27:57.956Z,151.88
2018-03-23T08:28:57.911Z,151.88
2018-03-23T08:29:57.863Z,151.88
2018-03-23T08:30:57.820Z,146.25
2018-03-23T08:31:57.785Z,140.63
2018-03-23T08:32:57.730Z,151.88
2018-03-23T08:33:57.681Z,157.50
2018-03-23T08:34:57.641Z,151.88
2018-03-23T08:35:57.591Z,163.13
2018-03-23T08:36:57.546Z,163.13
2018-03-23T08:37:57.497Z,157.50
2018-03-23T08:38:57.455Z,157.50
2018-03-23T08:39:57.407Z,157.50
2018-03-23T08:40:57.363Z,163.13
2018-03-23T08:41:57.313Z,174.38
2018-03-23T08:42:57.269Z,174.38
2018-03-23T08:43:57.245Z,168.75
2018-03-23T08:44:57.194Z,168.75
2018-03-23T08:45:57.131Z,163.13
2018-03-23T08:46:57.093Z,163.13
2018-03-23T08:47:57.046Z,168.75
2018-03-23T08:48:57.001Z,174.38
2018-03-23T08:49:56.955Z,174.38
2018-03-23T08:50:56.908Z,185.63
2018-03-23T08:51:56.860Z,191.25
2018-03-23T08:52:56.815Z,213.75
2018-03-23T08:53:56.778Z,225.00
2018-03-23T08:54:56.727Z,208.13
2018-03-23T08:55:56.681Z,196.88
2018-03-23T08:56:56.640Z,196.88
2018-03-23T08:57:56.592Z,202.50
2018-03-23T08:58:56.545Z,208.13
2018-03-23T08:59:56.499Z,208.13
2018-03-23T09:00:56.455Z,241.88
2018-03-23T09:01:56.412Z,225.00
2018-03-23T09:02:56.367Z,225.00
2018-03-23T09:03:56.322Z,191.25
2018-03-23T09:04:56.279Z,236.25
2018-03-23T09:05:56.234Z,180.00
2018-03-23T09:06:56.190Z,185.63
2018-03-23T09:07:56.146Z,191.25
2018-03-23T09:08:56.102Z,185.63
2018-03-23T09:09:56.060Z,174.38
2018-03-23T09:10:56.016Z,163.13
2018-03-23T09:11:55.970Z,157.50
2018-03-23T09:12:55.926Z,174.38
2018-03-23T09:13:55.889Z,174.38
2018-03-23T09:14:55.841Z,174.38
2018-03-23T09:15:55.795Z,174.38
2018-03-23T09:16:55.752Z,140.63
2018-03-23T09:17:55.708Z,129.38
2018-03-23T09:18:55.664Z,112.50
2018-03-23T09:19:55.623Z,118.13
2018-03-23T09:20:55.577Z,129.38
2018-03-23T09:21:55.531Z,123.75
2018-03-23T09:22:55.497Z,112.50
2018-03-23T09:23:55.442Z,118.13
2018-03-23T09:24:55.400Z,118.13
2018-03-23T09:25:55.354Z,123.75
2018-03-23T09:26:55.310Z,118.13
2018-03-23T09:27:55.267Z,118.13
2018-03-23T09:28:55.224Z,129.38
2018-03-23T09:29:55.179Z,151.88
2018-03-23T09:30:55.135Z,151.88
2018-03-23T09:31:55.089Z,146.25
2018-03-23T09:32:55.045Z,146.25
2018-03-23T09:33:55.004Z,146.25
2018-03-23T09:34:54.956Z,140.63
2018-03-23T09:35:54.919Z,135.00
2018-03-23T09:36:54.878Z,123.75
2018-03-23T09:37:54.824Z,118.13
2018-03-23T09:38:54.779Z,112.50
2018-03-23T09:39:54.734Z,112.50
2018-03-23T09:40:54.692Z,118.13
2018-03-23T09:41:54.646Z,118.13
2018-03-23T09:42:54.602Z,118.13
2018-03-23T09:43:54.566Z,106.88
2018-03-23T09:44:54.514Z,106.88
2018-03-23T09:45:54.469Z,101.25
2018-03-23T09:46:54.425Z,101.25
2018-03-23T09:47:54.378Z,95.63
2018-03-23T09:48:54.340Z,95.63
2018-03-23T09:49:54.292Z,95.63
2018-03-23T09:50:54.247Z,95.63
2018-03-23T09:51:54.208Z,95.63
2018-03-23T09:52:54.157Z,95.63
2018-03-23T09:53:54.114Z,90.00
2018-03-23T09:54:54.072Z,90.00
2018-03-23T09:55:54.024Z,90.00
2018-03-23T09:56:53.980Z,90.00
2018-03-23T09:57:53.935Z,90.00
2018-03-23T09:58:53.889Z,95.63
2018-03-23T09:59:53.854Z,95.63
2018-03-23T10:00:53.802Z,95.63
2018-03-23T10:01:53.765Z,90.00
2018-03-23T10:02:53.714Z,90.00
2018-03-23T10:03:53.752Z,95.63
2018-03-23T10:04:53.625Z,101.25
2018-03-23T10:05:53.579Z,101.25
2018-03-23T10:06:53.534Z,106.88
2018-03-23T10:07:53.488Z,112.50
2018-03-23T10:08:53.443Z,112.50
2018-03-23T10:09:53.455Z,112.50
2018-03-23T10:10:53.355Z,118.13
2018-03-23T10:11:53.309Z,112.50
2018-03-23T10:12:53.264Z,101.25
2018-03-23T10:13:53.218Z,95.63
2018-03-23T10:14:53.181Z,95.63
2018-03-23T10:15:53.161Z,90.00
2018-03-23T10:16:53.085Z,90.00
2018-03-23T10:17:53.046Z,90.00
2018-03-23T10:18:52.996Z,90.00
2018-03-23T10:19:52.960Z,95.63
2018-03-23T10:20:52.912Z,95.63
2018-03-23T10:21:52.879Z,95.63
2018-03-23T10:22:52.818Z,101.25
2018-03-23T10:23:52.771Z,95.63
2018-03-23T10:24:52.728Z,95.63
2018-03-23T10:25:52.683Z,95.63
2018-03-23T10:26:52.639Z,95.63
2018-03-23T10:27:52.596Z,95.63
2018-03-23T10:28:52.547Z,95.63
2018-03-23T10:29:52.501Z,90.00
2018-03-23T10:30:52.457Z,90.00
2018-03-23T10:31:52.412Z,90.00
2018-03-23T10:32:52.368Z,84.38
2018-03-23T10:33:52.624Z,78.75
2018-03-23T10:34:52.278Z,78.75
2018-03-23T10:35:52.234Z,78.75
2018-03-23T10:36:52.189Z,78.75
2018-03-23T10:37:52.146Z,84.38
2018-03-23T10:38:52.100Z,84.38
2018-03-23T10:39:52.053Z,84.38
2018-03-23T10:40:52.010Z,90.00
2018-03-23T10:41:51.965Z,95.63
2018-03-23T10:42:51.918Z,95.63
2018-03-23T10:43:51.874Z,95.63
2018-03-23T10:44:51.828Z,95.63
2018-03-23T10:45:51.785Z,95.63
2018-03-23T10:46:51.742Z,101.25
2018-03-23T10:47:51.706Z,101.25
2018-03-23T10:48:51.652Z,101.25
2018-03-23T10:49:51.610Z,101.25
2018-03-23T10:50:51.563Z,101.25
2018-03-23T10:51:51.514Z,101.25
2018-03-23T10:52:51.470Z,101.25
2018-03-23T10:53:51.426Z,95.63
2018-03-23T10:54:51.380Z,101.25
2018-03-23T10:55:51.336Z,118.13
2018-03-23T10:56:51.291Z,118.13
2018-03-23T10:57:51.248Z,106.88
2018-03-23T10:58:51.203Z,95.63
2018-03-23T10:59:51.154Z,90.00
2018-03-23T11:00:51.114Z,84.38
2018-03-23T11:01:51.072Z,78.75
2018-03-23T11:02:51.022Z,73.13
2018-03-23T11:03:50.979Z,73.13
2018-03-23T11:04:50.931Z,78.75
2018-03-23T11:05:50.886Z,73.13
2018-03-23T11:06:50.844Z,73.13
2018-03-23T11:07:50.798Z,73.13
2018-03-23T11:08:50.754Z,73.13
2018-03-23T11:09:50.708Z,73.13
2018-03-23T11:10:50.662Z,67.50
2018-03-23T11:11:50.618Z,67.50
2018-03-23T11:12:50.574Z,67.50
2018-03-23T11:13:50.528Z,67.50
2018-03-23T11:14:50.487Z,67.50
2018-03-23T11:15:50.437Z,67.50
2018-03-23T11:16:50.394Z,67.50
2018-03-23T11:17:50.379Z,73.13
2018-03-23T11:18:50.306Z,73.13
2018-03-23T11:19:50.258Z,73.13
2018-03-23T11:20:50.217Z,73.13
2018-03-23T11:21:50.168Z,73.13
2018-03-23T11:22:50.126Z,73.13
2018-03-23T11:23:50.084Z,73.13
2018-03-23T11:24:50.035Z,73.13
2018-03-23T11:25:49.996Z,73.13
2018-03-23T11:26:49.944Z,78.75
2018-03-23T11:27:49.898Z,84.38
2018-03-23T11:28:49.857Z,84.38
2018-03-23T11:29:49.840Z,90.00
2018-03-23T11:30:49.763Z,90.00
2018-03-23T11:31:49.721Z,95.63
2018-03-23T11:32:49.678Z,95.63
2018-03-23T11:33:49.627Z,101.25
2018-03-23T11:34:52.886Z,101.25
2018-03-23T11:35:49.539Z,95.63
2018-03-23T11:36:49.492Z,95.63
2018-03-23T11:37:49.452Z,90.00
2018-03-23T11:38:49.404Z,84.38
2018-03-23T11:39:49.359Z,78.75
2018-03-23T11:40:49.314Z,78.75
2018-03-23T11:41:49.275Z,84.38
2018-03-23T11:42:49.222Z,90.00
2018-03-23T11:43:49.180Z,101.25
2018-03-23T11:44:49.138Z,101.25
2018-03-23T11:45:49.089Z,101.25
2018-03-23T11:46:49.046Z,101.25
2018-03-23T11:47:48.995Z,101.25
2018-03-23T11:48:48.955Z,101.25
2018-03-23T11:49:48.911Z,101.25
2018-03-23T11:50:48.883Z,101.25
2018-03-23T11:51:48.816Z,101.25
2018-03-23T11:52:48.776Z,95.63
2018-03-23T11:53:48.732Z,95.63
2018-03-23T11:54:48.682Z,90.00
2018-03-23T11:55:48.635Z,90.00
2018-03-23T11:56:48.591Z,95.63
2018-03-23T11:57:48.547Z,95.63
2018-03-23T11:58:48.538Z,95.63
2018-03-23T11:59:48.454Z,101.25
2018-03-23T12:00:48.413Z,101.25
2018-03-23T12:01:48.364Z,95.63
2018-03-23T12:02:48.318Z,95.63
2018-03-23T12:03:48.274Z,90.00
2018-03-23T12:04:48.227Z,90.00
2018-03-23T12:05:48.182Z,84.38
2018-03-23T12:06:48.139Z,84.38
2018-03-23T12:07:48.092Z,84.38
2018-03-23T12:08:48.055Z,84.38
2018-03-23T12:09:48.003Z,84.38
2018-03-23T12:10:47.957Z,84.38
2018-03-23T12:11:47.911Z,84.38
2018-03-23T12:12:47.865Z,84.38
2018-03-23T12:13:47.820Z,90.00
2018-03-23T12:14:47.775Z,90.00
2018-03-23T12:15:47.731Z,95.63
2018-03-23T12:16:47.684Z,101.25
2018-03-23T12:17:47.642Z,101.25
2018-03-23T12:18:47.597Z,106.88
2018-03-23T12:19:47.550Z,106.88
2018-03-23T12:20:47.506Z,112.50
2018-03-23T12:21:47.463Z,106.88
2018-03-23T12:22:47.411Z,106.88
2018-03-23T12:23:47.368Z,101.25
2018-03-23T12:24:47.326Z,101.25
2018-03-23T12:25:47.279Z,101.25
2018-03-23T12:26:47.233Z,101.25
2018-03-23T12:27:47.185Z,101.25
2018-03-23T12:28:47.154Z,101.25
2018-03-23T12:29:47.095Z,95.63
2018-03-23T12:30:47.051Z,90.00
2018-03-23T12:31:47.002Z,90.00
2018-03-23T12:32:46.961Z,95.63
2018-03-23T12:33:46.914Z,95.63
2018-03-23T12:34:46.892Z,95.63
2018-03-23T12:35:46.819Z,95.63
2018-03-23T12:36:46.777Z,95.63
2018-03-23T12:37:46.729Z,95.63
2018-03-23T12:38:46.688Z,95.63
2018-03-23T12:39:46.637Z,101.25
2018-03-23T12:40:46.594Z,101.25
2018-03-23T12:41:46.549Z,101.25
2018-03-23T12:42:46.503Z,95.63
2018-03-23T12:43:46.456Z,95.63
2018-03-23T12:44:46.476Z,90.00
2018-03-23T12:45:46.477Z,90.00
2018-03-23T12:46:46.357Z,90.00
2018-03-23T12:47:46.358Z,84.38
2018-03-23T12:48:46.235Z,84.38
2018-03-23T12:49:46.235Z,84.38
2018-03-23T12:50:46.258Z,84.38
2018-03-23T12:51:46.117Z,84.38
2018-03-23T12:52:46.122Z,90.00
2018-03-23T12:53:46.113Z,90.00
2018-03-23T12:54:45.995Z,95.63
2018-03-23T12:55:45.995Z,95.63
2018-03-23T12:56:45.875Z,95.63
2018-03-23T12:57:45.874Z,95.63
2018-03-23T12:58:45.873Z,95.63
2018-03-23T12:59:45.759Z,95.63